createdAt,value
2018-01-07T00:00:44.376Z,4.10
2018-01-07T00:01:46.852Z,3.80
2018-01-07T00:02:49.329Z,3.53
2018-01-07T00:03:51.808Z,4.23
2018-01-07T00:04:54.265Z,3.97
2018-01-07T00:05:56.730Z,4.00
2018-01-07T00:06:59.208Z,3.87
2018-01-07T00:08:01.666Z,4.20
2018-01-07T00:09:04.146Z,4.27
2018-01-07T00:10:06.639Z,4.60
2018-01-07T00:11:09.102Z,4.67
2018-01-07T00:12:11.569Z,4.30
2018-01-07T00:13:14.022Z,4.27
2018-01-07T00:14:16.482Z,3.70
2018-01-07T00:15:18.968Z,4.03
2018-01-07T00:16:21.425Z,4.40
2018-01-07T00:17:23.878Z,3.50
2018-01-07T00:18:26.334Z,4.20
2018-01-07T00:19:28.790Z,3.80
2018-01-07T00:20:31.274Z,4.00
2018-01-07T00:21:33.750Z,3.80
2018-01-07T00:22:36.208Z,3.97
2018-01-07T00:23:38.662Z,3.43
2018-01-07T00:24:41.132Z,4.53
2018-01-07T00:25:43.608Z,3.70
2018-01-07T00:26:46.080Z,3.67
2018-01-07T00:27:48.533Z,4.20
2018-01-07T00:28:51.008Z,4.20
2018-01-07T00:29:53.479Z,4.00
2018-01-07T00:30:55.955Z,4.00
2018-01-07T00:31:58.418Z,3.73
2018-01-07T00:33:00.900Z,3.80
2018-01-07T00:34:03.359Z,4.13
2018-01-07T00:35:05.822Z,3.83
2018-01-07T00:36:08.301Z,3.67
2018-01-07T00:37:10.780Z,3.87
2018-01-07T00:38:13.294Z,4.00
2018-01-07T00:39:15.764Z,3.83
2018-01-07T00:40:18.227Z,3.43
2018-01-07T00:41:20.705Z,4.13
2018-01-07T00:42:23.158Z,3.90
2018-01-07T00:43:25.633Z,3.87
2018-01-07T00:44:28.104Z,3.90
2018-01-07T00:45:30.576Z,4.13
2018-01-07T00:46:33.069Z,3.70
2018-01-07T00:47:35.523Z,3.83
2018-01-07T00:48:37.992Z,3.70
2018-01-07T00:49:40.453Z,3.40
2018-01-07T00:50:42.928Z,3.50
2018-01-07T00:51:45.420Z,3.87
2018-01-07T00:52:47.894Z,3.70
2018-01-07T00:53:50.373Z,3.90
2018-01-07T00:54:52.831Z,4.20
2018-01-07T00:55:55.531Z,3.23
2018-01-07T00:56:58.020Z,3.90
2018-01-07T00:58:00.590Z,3.60
2018-01-07T00:59:03.060Z,4.57
2018-01-07T01:00:05.533Z,3.80
2018-01-07T01:01:08.004Z,3.53
2018-01-07T01:02:11.298Z,4.20
2018-01-07T01:03:13.784Z,3.90
2018-01-07T01:04:16.261Z,3.60
2018-01-07T01:05:18.733Z,4.00
2018-01-07T01:06:21.204Z,3.70
2018-01-07T01:07:23.700Z,3.90
2018-01-07T01:08:26.154Z,3.10
2018-01-07T01:09:28.610Z,3.10
2018-01-07T01:10:31.063Z,3.30
2018-01-07T01:11:33.518Z,3.90
2018-01-07T01:12:35.979Z,3.90
2018-01-07T01:13:38.452Z,4.00
2018-01-07T01:14:40.924Z,3.80
2018-01-07T01:15:43.382Z,3.17
2018-01-07T01:16:45.838Z,3.27
2018-01-07T01:17:48.321Z,4.10
2018-01-07T01:18:50.793Z,3.30
2018-01-07T01:19:53.260Z,3.47
2018-01-07T01:20:55.736Z,3.63
2018-01-07T01:21:58.198Z,3.47
2018-01-07T01:23:00.654Z,3.50
2018-01-07T01:24:03.134Z,3.93
2018-01-07T01:25:05.606Z,3.63
2018-01-07T01:26:08.080Z,3.70
2018-01-07T01:27:10.556Z,3.33
2018-01-07T01:28:13.014Z,3.30
2018-01-07T01:29:15.470Z,3.63
2018-01-07T01:30:17.927Z,3.27
2018-01-07T01:31:20.400Z,3.97
2018-01-07T01:32:22.857Z,3.63
2018-01-07T01:33:25.340Z,3.70
2018-01-07T01:34:27.797Z,4.13
2018-01-07T01:35:30.273Z,3.57
2018-01-07T01:36:32.734Z,3.27
2018-01-07T01:37:35.195Z,3.40
2018-01-07T01:38:37.649Z,3.33
2018-01-07T01:39:40.107Z,3.10
2018-01-07T01:40:42.580Z,3.57
2018-01-07T01:41:45.040Z,3.83
2018-01-07T01:42:47.497Z,3.80
2018-01-07T01:43:49.968Z,3.30
2018-01-07T01:44:52.422Z,3.57
2018-01-07T01:45:54.878Z,3.27
2018-01-07T01:46:57.339Z,3.17
2018-01-07T01:47:59.794Z,3.33
2018-01-07T01:49:14.043Z,3.63
2018-01-07T01:50:16.499Z,3.27
2018-01-07T01:51:19.013Z,3.50
2018-01-07T01:52:21.470Z,2.97
2018-01-07T01:53:23.934Z,3.13
2018-01-07T01:54:26.410Z,4.10
2018-01-07T01:55:28.887Z,3.67
2018-01-07T01:56:31.356Z,3.20
2018-01-07T01:57:33.828Z,3.40
2018-01-07T01:58:36.286Z,3.10
2018-01-07T01:59:38.771Z,3.67
2018-01-07T02:00:41.245Z,2.93
2018-01-07T02:01:43.723Z,3.10
2018-01-07T02:02:46.188Z,3.37
2018-01-07T02:03:48.648Z,3.03
2018-01-07T02:04:51.102Z,3.13
2018-01-07T02:05:53.580Z,3.37
2018-01-07T02:06:56.050Z,2.93
2018-01-07T02:07:58.520Z,3.23
2018-01-07T02:09:01.001Z,3.50
2018-01-07T02:10:03.461Z,3.77
2018-01-07T02:11:05.936Z,3.70
2018-01-07T02:12:08.394Z,3.10
2018-01-07T02:13:10.847Z,3.10
2018-01-07T02:14:13.331Z,3.20
2018-01-07T02:15:15.804Z,3.50
2018-01-07T02:16:18.258Z,3.20
2018-01-07T02:17:20.719Z,3.03
2018-01-07T02:18:23.174Z,3.10
2018-01-07T02:19:25.650Z,3.10
2018-01-07T02:20:28.105Z,3.50
2018-01-07T02:21:30.562Z,3.00
2018-01-07T02:22:33.018Z,3.70
2018-01-07T02:23:35.488Z,3.00
2018-01-07T02:24:37.965Z,2.70
2018-01-07T02:25:40.435Z,2.80
2018-01-07T02:26:42.890Z,4.00
2018-01-07T02:27:45.346Z,3.73
2018-01-07T02:28:47.805Z,2.90
2018-01-07T02:29:50.290Z,2.60
2018-01-07T02:30:52.752Z,3.50
2018-01-07T02:31:55.220Z,2.80
2018-01-07T02:32:57.678Z,2.93
2018-01-07T02:34:00.163Z,3.20
2018-01-07T02:35:02.656Z,2.93
2018-01-07T02:36:05.138Z,3.00
2018-01-07T02:37:07.608Z,3.10
2018-01-07T02:38:10.081Z,3.07
2018-01-07T02:39:12.569Z,4.10
2018-01-07T02:40:15.061Z,3.07
2018-01-07T02:41:17.526Z,3.27
2018-01-07T02:42:19.991Z,2.80
2018-01-07T02:43:22.459Z,2.87
2018-01-07T02:44:24.983Z,3.37
2018-01-07T02:45:27.479Z,2.87
2018-01-07T02:46:29.934Z,3.20
2018-01-07T02:47:32.412Z,3.87
2018-01-07T02:48:34.891Z,3.30
2018-01-07T02:49:37.367Z,2.60
2018-01-07T02:50:39.854Z,3.17
2018-01-07T02:51:42.310Z,2.80
2018-01-07T02:52:44.766Z,2.70
2018-01-07T02:53:47.230Z,3.50
2018-01-07T02:54:49.709Z,3.03
2018-01-07T02:55:52.197Z,2.90
2018-01-07T02:56:54.654Z,2.90
2018-01-07T02:57:57.130Z,3.43
2018-01-07T02:58:59.583Z,3.20
2018-01-07T03:00:02.085Z,3.10
2018-01-07T03:01:04.588Z,2.83
2018-01-07T03:02:07.081Z,3.10
2018-01-07T03:03:09.550Z,3.00
2018-01-07T03:04:12.030Z,2.80
2018-01-07T03:05:14.508Z,3.00
2018-01-07T03:06:17.012Z,3.17
2018-01-07T03:07:19.476Z,3.03
2018-01-07T03:08:21.965Z,2.97
2018-01-07T03:09:24.429Z,2.63
2018-01-07T03:10:26.890Z,3.50
2018-01-07T03:11:29.374Z,2.80
2018-01-07T03:12:31.834Z,3.00
2018-01-07T03:13:34.311Z,2.70
2018-01-07T03:14:36.776Z,3.13
2018-01-07T03:15:39.380Z,3.13
2018-01-07T03:16:41.860Z,2.53
2018-01-07T03:17:44.318Z,3.00
2018-01-07T03:18:46.792Z,3.80
2018-01-07T03:19:49.254Z,3.20
2018-01-07T03:20:51.718Z,2.90
2018-01-07T03:21:54.191Z,3.53
2018-01-07T03:22:56.670Z,3.53
2018-01-07T03:23:59.136Z,3.00
2018-01-07T03:25:01.589Z,2.77
2018-01-07T03:26:04.074Z,3.63
2018-01-07T03:27:06.544Z,2.90
2018-01-07T03:28:09.012Z,3.17
2018-01-07T03:29:11.473Z,3.20
2018-01-07T03:30:13.927Z,2.70
2018-01-07T03:31:16.410Z,2.87
2018-01-07T03:32:18.884Z,2.93
2018-01-07T03:33:21.363Z,3.60
2018-01-07T03:34:23.818Z,2.80
2018-01-07T03:35:26.274Z,2.63
2018-01-07T03:36:28.749Z,2.83
2018-01-07T03:37:30.618Z,3.10
2018-01-07T03:38:33.113Z,3.43
2018-01-07T03:39:35.584Z,2.40
2018-01-07T03:40:38.077Z,3.13
2018-01-07T03:41:40.576Z,3.10
2018-01-07T03:42:43.044Z,2.87
2018-01-07T03:43:45.502Z,3.10
2018-01-07T03:44:47.972Z,2.50
2018-01-07T03:45:50.444Z,2.90
2018-01-07T03:46:52.916Z,3.10
2018-01-07T03:47:55.373Z,3.20
2018-01-07T03:48:57.825Z,3.23
2018-01-07T03:50:00.283Z,2.80
2018-01-07T03:51:02.842Z,3.20
2018-01-07T03:52:05.318Z,2.30
2018-01-07T03:53:07.796Z,2.60
2018-01-07T03:54:10.254Z,3.03
2018-01-07T03:55:12.719Z,2.57
2018-01-07T03:56:15.184Z,2.57
2018-01-07T03:57:17.642Z,2.63
2018-01-07T03:58:20.126Z,2.20
2018-01-07T03:59:22.596Z,2.10
2018-01-07T04:00:25.064Z,2.90
2018-01-07T04:01:27.526Z,2.60
2018-01-07T04:02:29.982Z,3.37
2018-01-07T04:03:33.316Z,2.60
2018-01-07T04:04:35.796Z,3.37
2018-01-07T04:05:38.254Z,2.60
2018-01-07T04:06:40.769Z,2.70
2018-01-07T04:07:43.310Z,3.10
2018-01-07T04:08:45.784Z,3.03
2018-01-07T04:09:48.256Z,2.87
2018-01-07T04:10:50.718Z,3.07
2018-01-07T04:11:53.196Z,2.40
2018-01-07T04:12:55.663Z,2.60
2018-01-07T04:13:58.176Z,2.60
2018-01-07T04:15:00.634Z,2.47
2018-01-07T04:16:03.128Z,2.93
2018-01-07T04:17:05.606Z,3.00
2018-01-07T04:18:08.104Z,2.47
2018-01-07T04:19:10.584Z,2.80
2018-01-07T04:20:13.050Z,2.80
2018-01-07T04:21:15.533Z,3.30
2018-01-07T04:22:17.990Z,2.57
2018-01-07T04:23:20.465Z,3.17
2018-01-07T04:24:22.939Z,2.80
2018-01-07T04:25:25.394Z,2.90
2018-01-07T04:26:27.944Z,2.73
2018-01-07T04:27:30.412Z,2.43
2018-01-07T04:28:32.886Z,2.27
2018-01-07T04:29:35.338Z,2.93
2018-01-07T04:30:37.816Z,2.83
2018-01-07T04:31:40.274Z,2.80
2018-01-07T04:32:42.740Z,2.20
2018-01-07T04:33:45.258Z,2.47
2018-01-07T04:34:47.720Z,2.70
2018-01-07T04:35:50.196Z,2.57
2018-01-07T04:36:52.661Z,2.33
2018-01-07T04:37:55.133Z,2.77
2018-01-07T04:38:57.610Z,2.80
2018-01-07T04:40:00.085Z,2.50
2018-01-07T04:41:02.593Z,2.93
2018-01-07T04:42:05.050Z,2.30
2018-01-07T04:43:07.528Z,2.77
2018-01-07T04:44:10.010Z,2.73
2018-01-07T04:45:12.461Z,2.60
2018-01-07T04:46:14.938Z,2.23
2018-01-07T04:47:17.418Z,2.30
2018-01-07T04:48:19.892Z,2.70
2018-01-07T04:49:22.366Z,2.40
2018-01-07T04:50:24.831Z,2.90
2018-01-07T04:51:27.285Z,2.33
2018-01-07T04:52:29.825Z,2.57
2018-01-07T04:53:32.283Z,2.13
2018-01-07T04:54:34.790Z,2.00
2018-01-07T04:55:37.260Z,2.90
2018-01-07T04:56:39.780Z,2.40
2018-01-07T04:57:42.244Z,2.47
2018-01-07T04:58:44.736Z,2.73
2018-01-07T04:59:47.378Z,2.13
2018-01-07T05:00:49.843Z,2.50
2018-01-07T05:01:52.320Z,2.07
2018-01-07T05:02:54.851Z,2.37
2018-01-07T05:03:57.316Z,2.70
2018-01-07T05:04:59.792Z,2.27
2018-01-07T05:06:02.326Z,2.10
2018-01-07T05:07:04.782Z,2.37
2018-01-07T05:08:07.246Z,2.60
2018-01-07T05:09:09.702Z,2.10
2018-01-07T05:10:12.260Z,2.37
2018-01-07T05:11:14.715Z,2.63
2018-01-07T05:12:17.180Z,2.53
2018-01-07T05:13:19.657Z,2.53
2018-01-07T05:14:22.133Z,2.73
2018-01-07T05:15:24.612Z,2.23
2018-01-07T05:16:27.089Z,2.30
2018-01-07T05:17:29.546Z,2.30
2018-01-07T05:18:32.007Z,2.23
2018-01-07T05:19:34.488Z,2.20
2018-01-07T05:20:36.952Z,2.13
2018-01-07T05:21:39.411Z,2.43
2018-01-07T05:22:41.884Z,2.50
2018-01-07T05:23:44.345Z,2.20
2018-01-07T05:24:46.801Z,2.40
2018-01-07T05:25:49.266Z,2.23
2018-01-07T05:26:51.727Z,2.40
2018-01-07T05:27:54.196Z,2.20
2018-01-07T05:28:56.677Z,2.20
2018-01-07T05:29:59.152Z,2.03
2018-01-07T05:31:01.611Z,2.57
2018-01-07T05:32:04.084Z,2.40
2018-01-07T05:33:06.538Z,2.20
2018-01-07T05:34:09.001Z,2.13
2018-01-07T05:35:11.472Z,2.20
2018-01-07T05:36:13.940Z,2.27
2018-01-07T05:37:16.401Z,2.40
2018-01-07T05:38:18.880Z,2.20
2018-01-07T05:39:21.360Z,2.20
2018-01-07T05:40:23.813Z,2.50
2018-01-07T05:41:26.284Z,2.17
2018-01-07T05:42:28.748Z,2.17
2018-01-07T05:43:30.510Z,2.40
2018-01-07T05:44:32.966Z,2.20
2018-01-07T05:45:35.436Z,2.30
2018-01-07T05:46:37.894Z,2.03
2018-01-07T05:47:40.366Z,1.90
2018-01-07T05:48:42.840Z,2.10
2018-01-07T05:49:45.312Z,2.20
2018-01-07T05:50:47.784Z,1.90
2018-01-07T05:51:50.242Z,2.07
2018-01-07T05:52:52.701Z,2.00
2018-01-07T05:53:55.430Z,2.47
2018-01-07T05:54:57.889Z,2.10
2018-01-07T05:56:00.356Z,2.00
2018-01-07T05:57:02.837Z,2.50
2018-01-07T05:58:05.668Z,1.73
2018-01-07T05:59:08.144Z,2.00
2018-01-07T06:00:10.632Z,2.17
2018-01-07T06:01:13.120Z,1.83
2018-01-07T06:02:15.592Z,1.87
2018-01-07T06:03:18.046Z,2.10
2018-01-07T06:04:20.501Z,2.03
2018-01-07T06:05:22.976Z,2.07
2018-01-07T06:06:25.453Z,1.80
2018-01-07T06:07:27.924Z,1.70
2018-01-07T06:08:30.401Z,1.80
2018-01-07T06:09:32.860Z,1.80
2018-01-07T06:10:35.335Z,2.20
2018-01-07T06:11:37.812Z,1.93
2018-01-07T06:12:40.268Z,2.03
2018-01-07T06:13:42.740Z,1.80
2018-01-07T06:14:45.198Z,2.13
2018-01-07T06:15:47.686Z,2.00
2018-01-07T06:16:50.162Z,2.23
2018-01-07T06:17:52.652Z,2.00
2018-01-07T06:18:55.393Z,1.83
2018-01-07T06:19:57.850Z,2.20
2018-01-07T06:21:00.306Z,1.97
2018-01-07T06:22:02.783Z,1.83
2018-01-07T06:23:05.248Z,1.53
2018-01-07T06:24:07.708Z,1.80
2018-01-07T06:25:10.180Z,2.30
2018-01-07T06:26:12.636Z,1.93
2018-01-07T06:27:15.106Z,1.73
2018-01-07T06:28:17.675Z,1.73
2018-01-07T06:29:20.130Z,1.87
2018-01-07T06:30:22.612Z,2.00
2018-01-07T06:31:25.071Z,1.80
2018-01-07T06:32:27.528Z,1.97
2018-01-07T06:33:30.053Z,1.83
2018-01-07T06:34:32.509Z,2.13
2018-01-07T06:35:34.987Z,1.90
2018-01-07T06:36:37.461Z,1.90
2018-01-07T06:37:39.918Z,1.90
2018-01-07T06:38:42.397Z,1.57
2018-01-07T06:39:44.854Z,2.40
2018-01-07T06:40:47.328Z,1.70
2018-01-07T06:41:49.786Z,1.70
2018-01-07T06:42:52.261Z,2.10
2018-01-07T06:43:54.732Z,1.90
2018-01-07T06:44:57.204Z,1.77
2018-01-07T06:45:59.670Z,1.70
2018-01-07T06:47:02.136Z,1.60
2018-01-07T06:48:04.680Z,2.30
2018-01-07T06:49:07.156Z,2.00
2018-01-07T06:50:09.622Z,2.47
2018-01-07T06:51:12.086Z,2.50
2018-01-07T06:52:14.570Z,2.20
2018-01-07T06:53:17.026Z,2.20
2018-01-07T06:54:19.502Z,2.00
2018-01-07T06:55:21.974Z,2.25
2018-01-07T06:56:24.440Z,2.07
2018-01-07T06:57:26.920Z,2.07
2018-01-07T06:58:29.382Z,2.27
2018-01-07T06:59:31.864Z,2.00
2018-01-07T07:00:34.329Z,1.70
2018-01-07T07:01:36.802Z,1.90
2018-01-07T07:02:39.277Z,2.00
2018-01-07T07:03:41.733Z,2.03
2018-01-07T07:04:44.216Z,1.80
2018-01-07T07:05:46.689Z,1.90
2018-01-07T07:06:49.164Z,1.90
2018-01-07T07:07:51.618Z,1.90
2018-01-07T07:08:54.095Z,2.30
2018-01-07T07:09:56.564Z,2.13
2018-01-07T07:10:59.041Z,1.90
2018-01-07T07:12:01.513Z,2.00
2018-01-07T07:13:03.973Z,1.83
2018-01-07T07:14:06.462Z,1.70
2018-01-07T07:15:08.954Z,1.75
2018-01-07T07:16:11.433Z,1.77
2018-01-07T07:17:13.904Z,2.20
2018-01-07T07:18:16.378Z,1.57
2018-01-07T07:19:18.857Z,2.00
2018-01-07T07:20:21.328Z,1.53
2018-01-07T07:21:23.785Z,1.40
2018-01-07T07:22:26.242Z,1.70
2018-01-07T07:23:28.708Z,1.50
2018-01-07T07:24:31.206Z,1.62
2018-01-07T07:25:33.680Z,2.17
2018-01-07T07:26:36.172Z,2.10
2018-01-07T07:27:38.626Z,1.57
2018-01-07T07:28:41.096Z,1.73
2018-01-07T07:29:43.584Z,1.70
2018-01-07T07:30:46.062Z,1.87
2018-01-07T07:31:48.521Z,2.00
2018-01-07T07:32:50.989Z,1.57
2018-01-07T07:33:53.450Z,1.77
2018-01-07T07:34:55.942Z,1.55
2018-01-07T07:35:58.424Z,1.70
2018-01-07T07:37:00.891Z,1.50
2018-01-07T07:38:03.367Z,1.87
2018-01-07T07:39:05.829Z,2.00
2018-01-07T07:40:08.324Z,1.30
2018-01-07T07:41:10.797Z,1.60
2018-01-07T07:42:13.271Z,2.17
2018-01-07T07:43:15.746Z,2.00
2018-01-07T07:44:18.218Z,1.60
2018-01-07T07:45:20.693Z,2.00
2018-01-07T07:46:23.160Z,1.90
2018-01-07T07:47:25.614Z,1.67
2018-01-07T07:48:28.074Z,2.10
2018-01-07T07:49:30.531Z,1.50
2018-01-07T07:50:33.034Z,1.90
2018-01-07T07:51:35.502Z,1.70
2018-01-07T07:52:38.005Z,1.27
2018-01-07T07:53:40.467Z,1.30
2018-01-07T07:54:42.935Z,1.87
2018-01-07T07:55:45.410Z,1.60
2018-01-07T07:56:47.896Z,2.17
2018-01-07T07:57:50.370Z,1.52
2018-01-07T07:58:52.830Z,1.93
2018-01-07T07:59:55.288Z,1.87
2018-01-07T08:00:57.766Z,1.50
2018-01-07T08:02:00.223Z,1.60
2018-01-07T08:03:02.678Z,1.40
2018-01-07T08:04:05.134Z,1.40
2018-01-07T08:05:07.729Z,1.63
2018-01-07T08:06:10.212Z,1.70
2018-01-07T08:07:12.689Z,1.63
2018-01-07T08:08:15.164Z,1.60
2018-01-07T08:09:17.641Z,1.50
2018-01-07T08:10:20.110Z,1.42
2018-01-07T08:11:22.596Z,1.50
2018-01-07T08:12:25.068Z,1.70
2018-01-07T08:13:27.644Z,1.40
2018-01-07T08:14:30.121Z,1.93
2018-01-07T08:15:32.582Z,1.43
2018-01-07T08:16:35.076Z,1.60
2018-01-07T08:17:37.534Z,1.80
2018-01-07T08:18:40.008Z,1.73
2018-01-07T08:19:42.478Z,1.30
2018-01-07T08:20:44.949Z,1.50
2018-01-07T08:21:47.452Z,1.50
2018-01-07T08:22:49.924Z,1.40
2018-01-07T08:23:52.381Z,2.00
2018-01-07T08:24:54.842Z,1.60
2018-01-07T08:25:57.312Z,1.30
2018-01-07T08:26:59.801Z,1.40
2018-01-07T08:28:02.262Z,1.53
2018-01-07T08:29:04.726Z,1.77
2018-01-07T08:30:07.192Z,2.20
2018-01-07T08:31:09.664Z,1.60
2018-01-07T08:32:12.156Z,1.20
2018-01-07T08:33:14.643Z,1.67
2018-01-07T08:34:17.127Z,1.40
2018-01-07T08:35:19.590Z,1.43
2018-01-07T08:36:22.046Z,1.53
2018-01-07T08:37:24.536Z,1.43
2018-01-07T08:38:27.009Z,1.70
2018-01-07T08:39:29.477Z,1.30
2018-01-07T08:40:31.930Z,1.67
2018-01-07T08:41:34.404Z,1.40
2018-01-07T08:42:36.900Z,1.93
2018-01-07T08:43:39.362Z,1.10
2018-01-07T08:44:41.818Z,1.40
2018-01-07T08:45:44.294Z,1.40
2018-01-07T08:46:46.776Z,1.20
2018-01-07T08:47:49.259Z,1.70
2018-01-07T08:48:51.732Z,1.60
2018-01-07T08:49:54.203Z,1.50
2018-01-07T08:50:56.691Z,1.10
2018-01-07T08:51:59.166Z,1.40
2018-01-07T08:53:01.660Z,1.50
2018-01-07T08:54:04.118Z,1.70
2018-01-07T08:55:06.574Z,1.40
2018-01-07T08:56:09.038Z,1.65
2018-01-07T08:57:11.494Z,1.20
2018-01-07T08:58:14.000Z,1.62
2018-01-07T08:59:16.485Z,1.77
2018-01-07T09:00:18.975Z,1.60
2018-01-07T09:01:21.464Z,1.63
2018-01-07T09:02:23.918Z,1.80
2018-01-07T09:03:26.404Z,1.50
2018-01-07T09:04:28.886Z,1.33
2018-01-07T09:05:31.357Z,1.30
2018-01-07T09:06:33.818Z,1.87
2018-01-07T09:07:36.288Z,1.50
2018-01-07T09:08:38.766Z,1.47
2018-01-07T09:09:41.252Z,1.30
2018-01-07T09:10:43.706Z,1.53
2018-01-07T09:11:46.171Z,1.50
2018-01-07T09:12:48.642Z,1.70
2018-01-07T09:13:51.119Z,1.40
2018-01-07T09:14:53.607Z,1.63
2018-01-07T09:15:56.084Z,1.60
2018-01-07T09:16:58.557Z,1.50
2018-01-07T09:18:01.029Z,1.60
2018-01-07T09:19:03.533Z,1.60
2018-01-07T09:20:06.004Z,2.00
2018-01-07T09:21:08.462Z,1.43
2018-01-07T09:22:10.936Z,1.30
2018-01-07T09:23:13.399Z,1.70
2018-01-07T09:24:15.900Z,1.60
2018-01-07T09:25:18.367Z,1.30
2018-01-07T09:26:20.823Z,1.30
2018-01-07T09:27:23.293Z,1.20
2018-01-07T09:28:25.769Z,1.30
2018-01-07T09:29:28.251Z,1.33
2018-01-07T09:30:30.718Z,1.90
2018-01-07T09:31:33.189Z,2.00
2018-01-07T09:32:35.650Z,1.70
2018-01-07T09:33:38.111Z,1.70
2018-01-07T09:34:40.592Z,2.17
2018-01-07T09:35:43.054Z,2.30
2018-01-07T09:36:45.526Z,2.10
2018-01-07T09:37:48.012Z,2.27
2018-01-07T09:38:50.492Z,2.90
2018-01-07T09:39:53.001Z,2.50
2018-01-07T09:40:55.458Z,2.53
2018-01-07T09:41:57.928Z,2.67
2018-01-07T09:43:00.387Z,2.43
2018-01-07T09:44:02.856Z,2.30
2018-01-07T09:45:05.348Z,2.23
2018-01-07T09:46:07.811Z,2.33
2018-01-07T09:47:10.271Z,2.07
2018-01-07T09:48:12.744Z,2.00
2018-01-07T09:49:15.229Z,2.40
2018-01-07T09:50:17.710Z,2.83
2018-01-07T09:51:20.166Z,2.70
2018-01-07T09:52:22.644Z,3.00
2018-01-07T09:53:25.132Z,2.67
2018-01-07T09:54:27.586Z,2.97
2018-01-07T09:55:30.065Z,2.20
2018-01-07T09:56:32.709Z,2.53
2018-01-07T09:57:35.179Z,2.30
2018-01-07T09:58:37.636Z,2.77
2018-01-07T09:59:40.860Z,2.50
2018-01-07T10:00:43.356Z,2.20
2018-01-07T10:01:45.840Z,2.20
2018-01-07T10:02:48.303Z,2.47
2018-01-07T10:03:50.784Z,2.37
2018-01-07T10:04:53.254Z,2.00
2018-01-07T10:05:55.758Z,2.40
2018-01-07T10:06:58.240Z,2.08
2018-01-07T10:08:00.712Z,2.00
2018-01-07T10:09:03.213Z,1.80
2018-01-07T10:10:05.673Z,2.27
2018-01-07T10:11:08.165Z,2.03
2018-01-07T10:12:10.626Z,2.40
2018-01-07T10:13:13.113Z,2.20
2018-01-07T10:14:15.588Z,1.87
2018-01-07T10:15:18.060Z,2.20
2018-01-07T10:16:20.569Z,1.77
2018-01-07T10:17:23.068Z,1.60
2018-01-07T10:18:25.576Z,2.03
2018-01-07T10:19:28.044Z,1.70
2018-01-07T10:20:30.498Z,1.50
2018-01-07T10:21:32.972Z,1.47
2018-01-07T10:22:35.444Z,1.47
2018-01-07T10:23:37.912Z,1.80
2018-01-07T10:24:40.370Z,1.70
2018-01-07T10:25:42.839Z,1.33
2018-01-07T10:26:45.297Z,1.47
2018-01-07T10:27:47.758Z,1.47
2018-01-07T10:28:50.214Z,1.70
2018-01-07T10:29:52.688Z,1.53
2018-01-07T10:30:55.183Z,1.73
2018-01-07T10:31:57.661Z,1.60
2018-01-07T10:33:00.114Z,1.47
2018-01-07T10:34:02.591Z,1.50
2018-01-07T10:35:05.069Z,1.30
2018-01-07T10:36:07.574Z,1.30
2018-01-07T10:37:10.060Z,1.40
2018-01-07T10:38:12.518Z,1.40
2018-01-07T10:39:15.107Z,1.33
2018-01-07T10:40:17.566Z,1.20
2018-01-07T10:41:20.042Z,1.30
2018-01-07T10:42:22.516Z,1.20
2018-01-07T10:43:24.984Z,1.43
2018-01-07T10:44:27.451Z,1.30
2018-01-07T10:45:29.920Z,1.77
2018-01-07T10:46:32.396Z,1.50
2018-01-07T10:47:34.881Z,1.30
2018-01-07T10:48:37.338Z,1.40
2018-01-07T10:49:39.811Z,1.37
2018-01-07T10:50:42.283Z,1.50
2018-01-07T10:51:44.806Z,1.90
2018-01-07T10:52:47.283Z,1.50
2018-01-07T10:53:49.760Z,1.30
2018-01-07T10:54:52.232Z,1.67
2018-01-07T10:55:54.710Z,1.23
2018-01-07T10:56:57.204Z,1.40
2018-01-07T10:57:59.683Z,1.20
2018-01-07T10:59:02.152Z,1.27
2018-01-07T11:00:04.632Z,1.20
2018-01-07T11:01:12.666Z,1.37
2018-01-07T11:02:20.803Z,1.23
2018-01-07T11:03:23.269Z,1.20
2018-01-07T11:04:25.729Z,1.20
2018-01-07T11:05:28.205Z,1.23
2018-01-07T11:06:30.662Z,1.17
2018-01-07T11:07:33.160Z,1.40
2018-01-07T11:08:35.633Z,1.40
2018-01-07T11:09:38.094Z,1.57
2018-01-07T11:10:40.569Z,1.40
2018-01-07T11:11:43.023Z,1.50
2018-01-07T11:12:45.554Z,1.60
2018-01-07T11:13:48.020Z,1.23
2018-01-07T11:14:50.482Z,1.30
2018-01-07T11:15:52.943Z,1.67
2018-01-07T11:16:55.402Z,1.20
2018-01-07T11:17:57.878Z,1.20
2018-01-07T11:19:00.353Z,1.40
2018-01-07T11:20:02.837Z,1.67
2018-01-07T11:21:05.319Z,1.30
2018-01-07T11:22:07.797Z,1.57
2018-01-07T11:23:10.288Z,1.63
2018-01-07T11:24:12.746Z,1.20
2018-01-07T11:25:15.252Z,1.43
2018-01-07T11:26:17.815Z,1.43
2018-01-07T11:27:20.275Z,1.70
2018-01-07T11:28:22.755Z,1.23
2018-01-07T11:29:26.484Z,1.17
2018-01-07T11:30:28.995Z,1.50
2018-01-07T11:31:31.562Z,1.50
2018-01-07T11:32:34.024Z,1.33
2018-01-07T11:33:36.524Z,1.50
2018-01-07T11:34:38.990Z,1.10
2018-01-07T11:35:41.502Z,1.27
2018-01-07T11:36:43.986Z,1.23
2018-01-07T11:37:46.485Z,1.23
2018-01-07T11:38:48.985Z,1.17
2018-01-07T11:39:51.468Z,1.43
2018-01-07T11:40:53.931Z,1.10
2018-01-07T11:41:56.395Z,1.20
2018-01-07T11:42:58.898Z,1.37
2018-01-07T11:44:01.425Z,1.50
2018-01-07T11:45:03.908Z,1.93
2018-01-07T11:46:07.102Z,1.70
2018-01-07T11:47:09.568Z,2.10
2018-01-07T11:48:12.027Z,1.70
2018-01-07T11:49:14.536Z,1.97
2018-01-07T11:50:17.000Z,1.30
2018-01-07T11:51:19.509Z,1.60
2018-01-07T11:52:21.988Z,1.60
2018-01-07T11:53:24.450Z,1.80
2018-01-07T11:54:26.943Z,2.30
2018-01-07T11:55:29.461Z,1.90
2018-01-07T11:56:31.926Z,2.27
2018-01-07T11:57:34.416Z,1.77
2018-01-07T11:58:36.882Z,2.20
2018-01-07T11:59:39.409Z,2.20
2018-01-07T12:00:41.881Z,1.93
2018-01-07T12:01:44.351Z,2.70
2018-01-07T12:02:46.829Z,3.13
2018-01-07T12:03:49.330Z,3.07
2018-01-07T12:04:51.837Z,2.43
2018-01-07T12:05:54.302Z,2.93
2018-01-07T12:06:56.777Z,2.77
2018-01-07T12:07:59.244Z,3.03
2018-01-07T12:09:01.722Z,3.07
2018-01-07T12:10:04.229Z,3.00
2018-01-07T12:11:06.739Z,2.67
2018-01-07T12:12:09.217Z,3.43
2018-01-07T12:13:11.692Z,3.30
2018-01-07T12:14:14.169Z,2.93
2018-01-07T12:15:16.663Z,2.83
2018-01-07T12:16:19.130Z,2.80
2018-01-07T12:17:21.589Z,2.63
2018-01-07T12:18:24.060Z,2.80
2018-01-07T12:19:26.524Z,2.60
2018-01-07T12:20:29.005Z,2.20
2018-01-07T12:21:31.487Z,2.67
2018-01-07T12:22:34.695Z,2.73
2018-01-07T12:23:37.557Z,2.90
2018-01-07T12:24:40.083Z,2.73
2018-01-07T12:25:42.657Z,3.00
2018-01-07T12:26:45.136Z,2.90
2018-01-07T12:27:47.608Z,2.87
2018-01-07T12:28:50.098Z,2.73
2018-01-07T12:29:52.907Z,3.50
2018-01-07T12:30:55.385Z,3.17
2018-01-07T12:31:57.943Z,3.40
2018-01-07T12:33:00.443Z,3.90
2018-01-07T12:34:02.920Z,3.10
2018-01-07T12:35:05.383Z,4.17
2018-01-07T12:36:07.984Z,4.00
2018-01-07T12:37:10.503Z,3.80
2018-01-07T12:38:12.983Z,4.73
2018-01-07T12:39:15.460Z,4.37
2018-01-07T12:40:17.945Z,3.43
2018-01-07T12:41:20.406Z,4.90
2018-01-07T12:42:22.885Z,4.73
2018-01-07T12:43:25.439Z,4.87
2018-01-07T12:44:28.006Z,4.40
2018-01-07T12:45:30.507Z,4.07
2018-01-07T12:46:32.974Z,4.20
2018-01-07T12:47:35.459Z,5.33
2018-01-07T12:48:37.923Z,5.10
2018-01-07T12:49:40.390Z,5.00
2018-01-07T12:50:42.871Z,5.37
2018-01-07T12:51:45.444Z,4.47
2018-01-07T12:52:47.936Z,5.80
2018-01-07T12:53:50.477Z,5.53
2018-01-07T12:54:54.432Z,5.40
2018-01-07T12:55:56.944Z,6.63
2018-01-07T12:56:59.429Z,6.30
2018-01-07T12:58:01.974Z,6.30
2018-01-07T12:59:04.608Z,6.03
2018-01-07T13:00:07.080Z,6.60
2018-01-07T13:01:09.585Z,5.97
2018-01-07T13:02:12.060Z,5.90
2018-01-07T13:03:14.542Z,6.40
2018-01-07T13:04:17.021Z,5.90
2018-01-07T13:05:19.486Z,6.80
2018-01-07T13:06:21.954Z,6.17
2018-01-07T13:07:24.436Z,5.70
2018-01-07T13:08:26.905Z,8.47
2018-01-07T13:09:29.370Z,6.53
2018-01-07T13:10:31.835Z,5.83
2018-01-07T13:11:34.307Z,5.30
2018-01-07T13:12:37.113Z,6.57
2018-01-07T13:13:39.672Z,5.43
2018-01-07T13:14:42.190Z,5.10
2018-01-07T13:15:44.686Z,6.10
2018-01-07T13:16:47.164Z,5.43
2018-01-07T13:17:49.627Z,5.40
2018-01-07T13:18:52.231Z,5.37
2018-01-07T13:19:54.713Z,5.70
2018-01-07T13:20:57.194Z,5.00
2018-01-07T13:21:59.706Z,5.20
2018-01-07T13:23:02.798Z,4.90
2018-01-07T13:24:05.447Z,6.50
2018-01-07T13:25:07.981Z,5.50
2018-01-07T13:26:10.463Z,5.40
2018-01-07T13:27:12.926Z,5.20
2018-01-07T13:28:15.411Z,5.30
2018-01-07T13:29:17.897Z,4.73
2018-01-07T13:30:21.113Z,4.60
2018-01-07T13:31:23.589Z,4.37
2018-01-07T13:32:26.086Z,4.40
2018-01-07T13:33:28.554Z,5.27
2018-01-07T13:34:31.041Z,4.43
2018-01-07T13:35:33.537Z,5.27
2018-01-07T13:36:36.016Z,6.00
2018-01-07T13:37:38.540Z,5.03
2018-01-07T13:38:41.007Z,4.20
2018-01-07T13:39:43.484Z,4.33
2018-01-07T13:40:45.965Z,4.70
2018-01-07T13:41:48.421Z,4.30
2018-01-07T13:42:50.917Z,4.07
2018-01-07T13:43:53.396Z,4.00
2018-01-07T13:44:55.877Z,4.03
2018-01-07T13:45:58.496Z,3.97
2018-01-07T13:47:00.997Z,4.10
2018-01-07T13:48:03.536Z,4.40
2018-01-07T13:49:06.013Z,4.30
2018-01-07T13:50:08.478Z,4.33
2018-01-07T13:51:10.958Z,4.07
2018-01-07T13:52:13.432Z,3.67